Time;durP1;ratioP1;P1;durP2;ratioP2;P2;SDS_P1;SDS_P2;PMS_P1;PMS_P2;Temp;Humidity;BMP_temperature;BMP_pressure;BME280_temperature;BME280_humidity;BME280_pressure;Samples;Min_cycle;Max_cycle;Signal;HPM_P1;HPM_P2
2021/01/06 00:01:45;;;;;;;7.50;3.22;;;3.30;99.90;;;;;;5092433;28;20486;-61
2021/01/06 00:04:12;;;;;;;8.85;3.33;;;3.30;99.90;;;;;;5092948;28;20510;-61
2021/01/06 00:06:39;;;;;;;5.57;3.35;;;3.20;99.90;;;;;;5091610;28;20433;-61
2021/01/06 00:09:06;;;;;;;7.13;3.20;;;3.10;99.90;;;;;;5091400;28;20829;-61
2021/01/06 00:11:34;;;;;;;7.33;3.53;;;3.20;99.90;;;;;;5090470;28;20700;-61
2021/01/06 00:14:01;;;;;;;7.15;3.42;;;3.30;99.90;;;;;;5091434;28;20729;-61
2021/01/06 00:16:28;;;;;;;6.63;2.80;;;3.30;99.90;;;;;;5090312;28;20421;-61
2021/01/06 00:18:54;;;;;;;7.18;3.22;;;3.30;99.90;;;;;;5089032;28;20840;-61
2021/01/06 00:21:22;;;;;;;7.90;3.05;;;3.30;99.90;;;;;;5089568;28;20425;-61
2021/01/06 00:23:48;;;;;;;7.00;2.90;;;3.30;99.90;;;;;;5090347;28;20701;-61
2021/01/06 00:26:14;;;;;;;5.60;2.40;;;3.40;99.90;;;;;;5089126;28;20455;-61
2021/01/06 00:28:41;;;;;;;6.70;3.03;;;3.40;99.90;;;;;;5091109;28;20465;-61
2021/01/06 00:31:07;;;;;;;6.93;3.42;;;3.40;99.90;;;;;;5091170;28;20428;-61
2021/01/06 00:33:35;;;;;;;5.75;3.28;;;3.50;99.90;;;;;;5090499;28;20692;-61
2021/01/06 00:36:06;;;;;;;5.35;2.95;;;3.30;99.90;;;;;;5091662;28;20486;-61
2021/01/06 00:38:33;;;;;;;6.45;3.45;;;3.30;99.90;;;;;;5094735;28;20424;-61
2021/01/06 00:41:00;;;;;;;5.60;2.30;;;3.30;99.90;;;;;;5096182;28;20422;-61
2021/01/06 00:43:26;;;;;;;5.47;2.90;;;3.30;99.90;;;;;;5095641;28;20429;-61
2021/01/06 00:45:53;;;;;;;6.30;2.78;;;3.30;99.90;;;;;;5095528;28;20508;-61
2021/01/06 00:48:19;;;;;;;4.80;2.25;;;3.30;99.90;;;;;;5095775;28;20433;-61
2021/01/06 00:50:46;;;;;;;7.85;3.40;;;3.40;99.90;;;;;;5094750;28;20410;-61
2021/01/06 00:53:18;;;;;;;4.85;2.60;;;3.30;99.90;;;;;;5095595;28;20577;-61
2021/01/06 00:55:45;;;;;;;8.15;3.00;;;3.30;99.90;;;;;;5094166;28;20422;-61
2021/01/06 00:58:12;;;;;;;6.10;2.42;;;3.30;99.90;;;;;;5095256;28;20867;-61
2021/01/06 01:00:38;;;;;;;6.40;2.80;;;3.30;99.90;;;;;;5094227;28;20432;-61
2021/01/06 01:03:05;;;;;;;4.43;2.22;;;3.30;99.90;;;;;;5095394;28;20431;-61
2021/01/06 01:05:33;;;;;;;6.10;2.67;;;3.30;99.90;;;;;;5095372;28;20432;-61
2021/01/06 01:08:01;;;;;;;7.35;2.80;;;3.20;99.90;;;;;;5095811;28;20440;-61
2021/01/06 01:10:31;;;;;;;7.00;2.42;;;3.20;99.90;;;;;;5095621;28;20882;-61
2021/01/06 01:12:59;;;;;;;5.10;2.10;;;3.30;99.90;;;;;;5094967;28;20528;-60
2021/01/06 01:15:27;;;;;;;4.47;1.80;;;3.30;99.90;;;;;;5095915;28;20425;-61
2021/01/06 01:17:54;;;;;;;7.15;3.00;;;3.20;99.90;;;;;;5094785;28;20721;-61
2021/01/06 01:20:21;;;;;;;5.82;2.70;;;3.30;99.90;;;;;;5095282;28;20421;-61
2021/01/06 01:22:47;;;;;;;5.68;2.30;;;3.20;99.90;;;;;;5095700;28;20424;-60
2021/01/06 01:25:16;;;;;;;6.80;2.60;;;3.20;99.90;;;;;;5095311;28;20431;-60
2021/01/06 01:27:43;;;;;;;6.18;2.83;;;3.20;99.90;;;;;;5095593;28;20872;-60
2021/01/06 01:30:14;;;;;;;4.45;2.10;;;3.20;99.90;;;;;;5094956;28;20414;-60
2021/01/06 01:32:42;;;;;;;5.35;2.20;;;3.20;99.90;;;;;;5095872;28;20426;-60
2021/01/06 01:35:10;;;;;;;5.40;2.30;;;3.20;99.90;;;;;;5095415;28;20722;-60
2021/01/06 01:37:36;;;;;;;5.82;2.30;;;3.20;99.90;;;;;;5095682;28;20829;-60
2021/01/06 01:40:04;;;;;;;5.13;2.40;;;3.20;99.90;;;;;;5094098;28;20421;-60
2021/01/06 01:42:31;;;;;;;4.33;2.23;;;3.20;99.90;;;;;;5094305;28;20433;-60
2021/01/06 01:45:00;;;;;;;5.57;2.67;;;3.20;99.90;;;;;;5094594;28;20426;-60
2021/01/06 01:47:33;;;;;;;4.15;2.15;;;3.20;99.90;;;;;;5093225;28;20434;-60
2021/01/06 01:50:00;;;;;;;4.03;1.70;;;3.20;99.90;;;;;;5095787;28;20418;-60
2021/01/06 01:52:31;;;;;;;4.38;1.90;;;3.20;99.90;;;;;;5095156;28;20425;-60
2021/01/06 01:55:01;;;;;;;5.10;1.90;;;3.10;99.90;;;;;;5095754;28;20825;-60
2021/01/06 01:57:30;;;;;;;4.03;2.00;;;3.20;99.90;;;;;;5095577;28;20422;-60
2021/01/06 02:00:01;;;;;;;3.38;2.03;;;3.10;99.90;;;;;;5094358;28;20441;-60
2021/01/06 02:02:33;;;;;;;4.60;2.03;;;3.10;99.90;;;;;;5095242;28;20429;-60
2021/01/06 02:05:07;;;;;;;7.30;2.20;;;3.20;99.90;;;;;;5095624;28;20561;-60
2021/01/06 02:07:40;;;;;;;4.65;2.30;;;3.10;99.90;;;;;;5094797;28;20490;-60
2021/01/06 02:10:15;;;;;;;5.03;2.20;;;3.00;99.90;;;;;;5095616;28;20413;-60
2021/01/06 02:12:45;;;;;;;3.80;1.88;;;3.00;99.90;;;;;;5095018;28;21031;-60
2021/01/06 02:15:21;;;;;;;4.47;1.80;;;3.00;99.90;;;;;;5094583;28;20418;-60
2021/01/06 02:17:49;;;;;;;4.32;1.85;;;2.90;99.90;;;;;;5094923;28;20426;-60
2021/01/06 02:20:18;;;;;;;5.07;2.05;;;3.00;99.90;;;;;;5094905;28;20432;-60
2021/01/06 02:22:46;;;;;;;5.65;2.45;;;3.10;99.90;;;;;;5095486;28;20504;-60
2021/01/06 02:25:14;;;;;;;4.27;1.97;;;3.10;99.90;;;;;;5094620;28;20506;-60
2021/01/06 02:27:40;;;;;;;6.57;2.25;;;3.20;99.90;;;;;;5094090;28;20533;-60
2021/01/06 02:30:09;;;;;;;4.80;2.00;;;3.10;99.90;;;;;;5093100;28;20836;-60
2021/01/06 02:32:35;;;;;;;3.95;1.50;;;3.10;99.90;;;;;;5092388;28;20418;-60
2021/01/06 02:35:02;;;;;;;4.18;2.05;;;3.10;99.90;;;;;;5090089;28;20421;-61
2021/01/06 02:37:28;;;;;;;5.25;1.60;;;3.10;99.90;;;;;;5090354;28;20432;-61
2021/01/06 02:39:56;;;;;;;4.22;1.75;;;3.20;99.90;;;;;;5089778;28;20420;-60
2021/01/06 02:42:22;;;;;;;3.70;1.60;;;3.20;99.90;;;;;;5090937;28;20524;-61
2021/01/06 02:44:48;;;;;;;4.30;1.80;;;3.30;99.90;;;;;;5089243;28;20409;-61
2021/01/06 02:47:17;;;;;;;5.57;1.80;;;3.20;99.90;;;;;;5090109;28;20487;-60
2021/01/06 02:49:44;;;;;;;4.07;1.70;;;2.90;99.90;;;;;;5091506;28;20425;-61
2021/01/06 02:52:14;;;;;;;4.75;1.90;;;2.90;99.90;;;;;;5092153;28;20433;-60
2021/01/06 02:54:44;;;;;;;3.90;1.80;;;2.90;99.90;;;;;;5092275;28;20446;-61
2021/01/06 02:57:13;;;;;;;2.97;1.50;;;2.90;99.90;;;;;;5093843;28;20410;-60
2021/01/06 02:59:42;;;;;;;5.40;1.92;;;2.90;99.90;;;;;;5092759;28;20428;-60
2021/01/06 03:02:10;;;;;;;4.25;1.77;;;2.90;99.90;;;;;;5093563;28;20424;-60
2021/01/06 03:04:40;;;;;;;6.45;1.67;;;2.90;99.90;;;;;;5094232;28;20448;-61
2021/01/06 03:07:08;;;;;;;3.65;1.48;;;2.90;99.90;;;;;;5093467;28;20860;-61
2021/01/06 03:09:37;;;;;;;4.07;1.88;;;2.70;99.90;;;;;;5093842;28;20459;-60
2021/01/06 03:12:06;;;;;;;2.00;1.20;;;2.70;99.90;;;;;;5093885;28;20861;-60
2021/01/06 03:14:34;;;;;;;2.88;1.65;;;2.70;99.90;;;;;;5093802;28;20422;-60
2021/01/06 03:17:03;;;;;;;4.72;1.60;;;2.60;99.90;;;;;;5092703;28;20745;-60
2021/01/06 03:19:33;;;;;;;6.73;1.80;;;2.60;99.90;;;;;;5091837;28;20898;-59
2021/01/06 03:22:02;;;;;;;3.35;1.55;;;2.50;99.90;;;;;;5092374;28;20422;-59
2021/01/06 03:24:34;;;;;;;4.77;1.90;;;2.30;99.90;;;;;;5092561;28;20414;-59
2021/01/06 03:27:01;;;;;;;3.78;1.67;;;2.40;99.90;;;;;;5091930;28;20715;-60
2021/01/06 03:29:31;;;;;;;3.25;1.60;;;2.50;99.90;;;;;;5091843;28;20509;-60
2021/01/06 03:32:02;;;;;;;4.18;1.50;;;2.60;99.90;;;;;;5091426;28;20414;-60
2021/01/06 03:34:33;;;;;;;3.10;1.95;;;2.50;99.90;;;;;;5092343;28;20428;-60
2021/01/06 03:37:07;;;;;;;2.88;1.60;;;2.50;99.90;;;;;;5091766;28;20418;-59
2021/01/06 03:39:39;;;;;;;3.30;1.60;;;2.60;99.90;;;;;;5092873;28;20429;-59
2021/01/06 03:42:06;;;;;;;3.15;1.30;;;2.70;99.90;;;;;;5092827;28;20494;-58
2021/01/06 03:44:32;;;;;;;2.57;1.30;;;2.80;99.90;;;;;;5093333;28;20497;-58
2021/01/06 03:47:07;;;;;;;3.90;1.50;;;2.80;99.90;;;;;;5091906;28;20710;-58
2021/01/06 03:49:48;;;;;;;3.17;1.70;;;2.80;99.90;;;;;;5091678;28;20418;-58
2021/01/06 03:52:30;;;;;;;2.60;1.30;;;2.80;99.90;;;;;;5092262;28;20490;-58
2021/01/06 03:55:03;;;;;;;3.13;1.40;;;2.80;99.90;;;;;;5091154;28;20421;-59
2021/01/06 03:57:31;;;;;;;4.25;1.65;;;2.80;99.90;;;;;;5091594;28;20422;-59
2021/01/06 03:59:59;;;;;;;4.60;1.80;;;2.80;99.90;;;;;;5090514;28;20425;-59
2021/01/06 04:02:31;;;;;;;3.20;1.60;;;2.80;99.90;;;;;;5092092;28;20512;-59
2021/01/06 04:05:05;;;;;;;3.20;1.55;;;2.70;99.90;;;;;;5091119;28;20871;-59
2021/01/06 04:07:35;;;;;;;5.30;1.70;;;2.70;99.90;;;;;;5092290;28;20501;-59
2021/01/06 04:10:06;;;;;;;3.40;1.50;;;2.70;99.90;;;;;;5092805;28;20455;-59
2021/01/06 04:12:33;;;;;;;4.22;1.80;;;2.60;99.90;;;;;;5097387;28;20516;-59
2021/01/06 04:14:59;;;;;;;3.55;1.67;;;2.40;99.90;;;;;;5097623;28;20425;-59
2021/01/06 04:17:29;;;;;;;3.33;1.90;;;2.40;99.90;;;;;;5097998;28;20517;-59
2021/01/06 04:19:59;;;;;;;3.22;1.50;;;2.60;99.90;;;;;;5097169;28;20418;-59
2021/01/06 04:22:41;;;;;;;4.45;1.60;;;2.50;99.90;;;;;;5097813;28;20429;-58
2021/01/06 04:25:23;;;;;;;3.55;1.80;;;2.50;99.90;;;;;;5096854;28;20494;-58
2021/01/06 04:27:51;;;;;;;3.72;1.40;;;2.50;99.90;;;;;;5098168;28;20441;-59
2021/01/06 04:30:24;;;;;;;4.63;1.60;;;2.60;99.90;;;;;;5097205;28;20504;-58
2021/01/06 04:32:52;;;;;;;3.80;1.42;;;2.60;99.90;;;;;;5097000;28;20432;-57
2021/01/06 04:35:19;;;;;;;4.05;1.63;;;2.60;99.90;;;;;;5097354;28;20478;-58
2021/01/06 04:37:46;;;;;;;4.45;1.90;;;2.60;99.90;;;;;;5096975;28;20438;-58
2021/01/06 04:40:14;;;;;;;4.43;1.52;;;2.60;99.90;;;;;;5097169;28;20418;-59
2021/01/06 04:42:42;;;;;;;3.60;1.58;;;2.60;99.90;;;;;;5097356;28;20426;-58
2021/01/06 04:45:14;;;;;;;3.40;1.80;;;2.70;99.90;;;;;;5096834;28;20417;-60
2021/01/06 04:48:06;;;;;;;3.78;1.70;;;2.70;99.90;;;;;;5096895;28;20491;-58
2021/01/06 04:51:06;;;;;;;3.88;1.63;;;2.60;99.90;;;;;;5096046;28;20466;-58
2021/01/06 04:53:54;;;;;;;4.30;1.73;;;2.50;99.90;;;;;;5096534;28;20891;-58
2021/01/06 04:56:38;;;;;;;3.25;1.52;;;2.50;99.90;;;;;;5095819;28;20852;-58
2021/01/06 04:59:16;;;;;;;4.20;1.60;;;2.40;99.90;;;;;;5096112;28;20432;-58
2021/01/06 05:01:59;;;;;;;6.18;1.90;;;2.40;99.90;;;;;;5097182;28;20425;-58
2021/01/06 05:05:05;;;;;;;4.53;1.67;;;2.40;99.90;;;;;;5095463;28;20445;-58
2021/01/06 05:07:52;;;;;;;4.68;1.60;;;2.40;99.90;;;;;;5095089;28;20438;-58
2021/01/06 05:10:28;;;;;;;5.05;1.95;;;2.50;99.90;;;;;;5096595;28;20426;-58
2021/01/06 05:13:01;;;;;;;4.55;1.60;;;2.50;99.90;;;;;;5096063;28;20491;-58
2021/01/06 05:15:39;;;;;;;3.75;1.60;;;2.50;99.90;;;;;;5097175;28;20422;-59
2021/01/06 05:18:06;;;;;;;5.17;1.97;;;2.50;99.90;;;;;;5096576;28;20422;-58
2021/01/06 05:20:33;;;;;;;4.93;1.90;;;2.60;99.90;;;;;;5095961;28;20417;-58
2021/01/06 05:23:01;;;;;;;4.83;1.73;;;2.50;99.90;;;;;;5095998;28;20432;-58
2021/01/06 05:25:29;;;;;;;4.53;1.73;;;2.40;99.90;;;;;;5096145;28;20414;-58
2021/01/06 05:27:56;;;;;;;4.13;1.70;;;2.40;99.90;;;;;;5095179;28;20741;-58
2021/01/06 05:30:26;;;;;;;2.75;1.52;;;2.50;99.90;;;;;;5095812;28;20453;-58
2021/01/06 05:32:58;;;;;;;3.30;1.63;;;2.60;99.90;;;;;;5094987;28;20432;-58
2021/01/06 05:35:28;;;;;;;3.38;1.70;;;2.60;99.90;;;;;;5094688;28;20848;-58
2021/01/06 05:37:58;;;;;;;3.10;1.50;;;2.70;99.90;;;;;;5093839;28;20701;-58
2021/01/06 05:40:24;;;;;;;4.05;1.60;;;2.70;99.90;;;;;;5092315;28;20786;-59
2021/01/06 05:42:53;;;;;;;3.97;1.50;;;2.70;99.90;;;;;;5091993;28;20421;-59
2021/01/06 05:45:21;;;;;;;3.45;1.40;;;2.60;99.90;;;;;;5092696;28;20693;-58
2021/01/06 05:47:52;;;;;;;3.72;1.40;;;2.50;99.90;;;;;;5092295;28;20430;-58
2021/01/06 05:50:23;;;;;;;2.80;1.50;;;2.50;99.90;;;;;;5092799;28;20660;-59
2021/01/06 05:52:59;;;;;;;4.70;1.40;;;2.40;99.90;;;;;;5092671;28;20428;-58
2021/01/06 05:55:30;;;;;;;3.10;1.50;;;2.40;99.90;;;;;;5093514;28;20792;-58
2021/01/06 05:58:03;;;;;;;3.80;1.40;;;2.50;99.90;;;;;;5093794;28;20422;-59
2021/01/06 06:00:47;;;;;;;3.97;1.60;;;2.50;99.90;;;;;;5091627;28;20424;-59
2021/01/06 06:03:48;;;;;;;3.40;1.25;;;2.50;99.90;;;;;;5093564;28;20426;-58
2021/01/06 06:06:55;;;;;;;2.80;1.50;;;2.60;99.90;;;;;;5080997;28;20858;-59
2021/01/06 06:10:00;;;;;;;3.40;1.50;;;2.50;99.90;;;;;;5072970;28;20931;-59
2021/01/06 06:12:45;;;;;;;3.17;1.50;;;2.50;99.90;;;;;;5075437;28;20425;-58
2021/01/06 06:15:33;;;;;;;2.75;1.50;;;2.50;99.90;;;;;;5090551;28;20622;-59
2021/01/06 06:18:45;;;;;;;2.85;1.40;;;2.50;99.90;;;;;;5091689;28;20729;-59
2021/01/06 06:21:30;;;;;;;3.10;1.30;;;2.60;99.90;;;;;;5045552;28;20830;-58
2021/01/06 06:24:11;;;;;;;3.20;1.40;;;2.60;99.90;;;;;;5092623;28;20426;-58
2021/01/06 06:26:45;;;;;;;4.03;1.40;;;2.60;99.90;;;;;;5092101;28;20426;-59
2021/01/06 06:29:21;;;;;;;3.58;1.50;;;2.40;99.90;;;;;;5094767;28;20440;-59
2021/01/06 06:31:51;;;;;;;4.20;1.30;;;2.30;99.90;;;;;;5094121;28;20414;-59
2021/01/06 06:34:26;;;;;;;2.88;1.45;;;2.20;99.90;;;;;;5093243;28;20433;-59
2021/01/06 06:37:07;;;;;;;3.47;1.30;;;2.10;99.90;;;;;;5079207;28;20720;-59
2021/01/06 06:39:41;;;;;;;3.58;1.38;;;2.00;99.90;;;;;;5073897;28;20444;-59
2021/01/06 06:42:25;;;;;;;3.05;1.40;;;1.90;99.90;;;;;;5074929;28;20646;-59
2021/01/06 06:44:55;;;;;;;3.33;1.40;;;2.00;99.90;;;;;;5073790;28;20838;-59
2021/01/06 06:47:25;;;;;;;1.90;1.35;;;2.10;99.90;;;;;;5074089;28;20436;-59
2021/01/06 06:50:34;;;;;;;3.60;1.30;;;2.10;99.90;;;;;;5073414;28;20483;-59
2021/01/06 06:53:12;;;;;;;3.25;1.40;;;2.20;99.90;;;;;;5073147;28;20465;-59
2021/01/06 06:55:46;;;;;;;3.10;1.50;;;2.40;99.90;;;;;;5073736;28;20459;-59
2021/01/06 06:58:39;;;;;;;3.20;1.35;;;2.40;99.90;;;;;;5074362;28;20420;-59
2021/01/06 07:01:09;;;;;;;2.70;1.20;;;2.40;99.90;;;;;;5070877;28;20431;-59
2021/01/06 07:03:38;;;;;;;2.28;1.10;;;2.50;99.90;;;;;;5074417;28;20431;-59
2021/01/06 07:06:09;;;;;;;3.50;1.30;;;2.50;99.90;;;;;;5074020;28;20713;-59
2021/01/06 07:08:43;;;;;;;1.98;0.98;;;2.60;99.90;;;;;;5074244;28;20753;-58
2021/01/06 07:11:23;;;;;;;3.05;1.10;;;2.70;99.90;;;;;;5073598;28;20795;-59
2021/01/06 07:14:01;;;;;;;3.30;1.10;;;2.70;99.90;;;;;;5073318;28;20484;-59
2021/01/06 07:16:43;;;;;;;2.53;1.20;;;2.60;99.90;;;;;;5073000;28;20420;-59
2021/01/06 07:19:21;;;;;;;2.75;1.30;;;2.50;99.90;;;;;;5074100;28;20427;-59
2021/01/06 07:21:51;;;;;;;3.30;1.40;;;2.20;99.90;;;;;;5073854;28;20522;-59
2021/01/06 07:24:20;;;;;;;2.63;1.17;;;2.10;99.90;;;;;;5074497;28;20556;-59
2021/01/06 07:26:51;;;;;;;2.03;1.10;;;2.10;99.90;;;;;;5073922;28;20514;-59
2021/01/06 07:29:20;;;;;;;2.90;1.20;;;2.00;99.90;;;;;;5073806;28;20512;-59
2021/01/06 07:31:58;;;;;;;2.47;1.00;;;2.00;99.90;;;;;;5077398;28;20500;-61
2021/01/06 07:34:41;;;;;;;2.05;1.20;;;2.00;99.90;;;;;;5071527;28;20412;-59
2021/01/06 07:37:23;;;;;;;3.07;1.23;;;2.00;99.90;;;;;;5081806;28;20424;-59
2021/01/06 07:39:57;;;;;;;2.25;1.10;;;2.10;99.90;;;;;;5092451;28;20516;-59
2021/01/06 07:42:40;;;;;;;2.55;1.30;;;2.30;99.90;;;;;;5092742;28;20732;-58
2021/01/06 07:45:27;;;;;;;2.30;1.10;;;2.40;99.90;;;;;;5087205;28;20425;-59
2021/01/06 07:48:02;;;;;;;1.90;1.10;;;2.50;99.90;;;;;;5092107;28;20430;-59
2021/01/06 07:50:30;;;;;;;1.52;1.00;;;2.50;99.90;;;;;;5093017;28;20426;-59
2021/01/06 07:53:01;;;;;;;3.13;1.23;;;2.50;99.90;;;;;;5092850;28;20506;-60
2021/01/06 07:55:33;;;;;;;2.38;1.20;;;2.60;99.90;;;;;;5090091;28;20429;-59
2021/01/06 07:58:05;;;;;;;2.15;1.20;;;2.60;99.90;;;;;;5086602;28;20425;-59
2021/01/06 08:00:36;;;;;;;2.58;1.20;;;2.70;99.90;;;;;;5093240;28;20410;-59
2021/01/06 08:03:22;;;;;;;1.60;0.90;;;2.80;99.90;;;;;;5084959;28;20511;-59
2021/01/06 08:06:01;;;;;;;2.83;1.10;;;2.80;99.90;;;;;;5087131;28;20465;-56
2021/01/06 08:08:30;;;;;;;1.83;1.00;;;2.90;99.90;;;;;;5083335;28;20476;-58
2021/01/06 08:11:05;;;;;;;1.90;1.00;;;2.90;99.90;;;;;;5091993;28;20445;-58
2021/01/06 08:13:34;;;;;;;2.10;1.10;;;2.80;99.90;;;;;;5087031;28;20524;-58
2021/01/06 08:16:24;;;;;;;2.37;1.10;;;2.80;99.90;;;;;;5074369;28;20730;-57
2021/01/06 08:19:05;;;;;;;2.53;1.10;;;2.70;99.90;;;;;;5081529;28;20426;-57
2021/01/06 08:21:42;;;;;;;2.05;1.00;;;2.60;99.90;;;;;;5080793;28;20743;-58
2021/01/06 08:24:16;;;;;;;2.83;1.20;;;2.60;99.90;;;;;;5092640;28;20529;-58
2021/01/06 08:26:47;;;;;;;2.05;1.00;;;2.60;99.90;;;;;;5081624;28;20431;-58
2021/01/06 08:29:19;;;;;;;1.77;1.02;;;2.60;99.90;;;;;;5084091;28;20439;-59
2021/01/06 08:31:48;;;;;;;2.10;1.10;;;2.60;99.90;;;;;;5072605;28;20905;-59
2021/01/06 08:34:24;;;;;;;1.80;1.15;;;2.60;99.90;;;;;;5072840;28;20451;-58
2021/01/06 08:36:56;;;;;;;1.73;1.20;;;2.60;99.90;;;;;;5073245;28;20445;-59
2021/01/06 08:39:24;;;;;;;2.72;1.10;;;2.70;99.90;;;;;;5072356;28;20422;-59
2021/01/06 08:41:52;;;;;;;2.78;1.20;;;2.80;99.90;;;;;;5072579;28;20422;-59
2021/01/06 08:44:36;;;;;;;1.80;1.10;;;2.70;99.90;;;;;;5072410;28;20454;-61
2021/01/06 08:47:07;;;;;;;2.10;1.48;;;2.60;99.90;;;;;;5075259;28;20425;-59
2021/01/06 08:49:35;;;;;;;2.40;1.20;;;2.50;99.90;;;;;;5072841;28;20577;-59
2021/01/06 08:52:27;;;;;;;2.60;1.20;;;2.50;99.90;;;;;;5076368;28;20713;-59
2021/01/06 08:55:02;;;;;;;1.67;1.00;;;2.60;99.90;;;;;;5081453;28;20516;-59
2021/01/06 08:57:32;;;;;;;1.90;1.00;;;2.60;99.90;;;;;;5087128;28;20746;-59
2021/01/06 09:00:21;;;;;;;2.55;1.00;;;2.70;99.90;;;;;;5079029;28;20883;-58
2021/01/06 09:02:52;;;;;;;2.75;1.10;;;2.60;99.90;;;;;;5081405;28;20728;-59
2021/01/06 09:05:55;;;;;;;3.22;1.33;;;2.60;99.90;;;;;;5085030;28;20870;-59
2021/01/06 09:08:25;;;;;;;2.22;1.20;;;2.50;99.90;;;;;;5080589;28;20588;-59
2021/01/06 09:11:03;;;;;;;1.73;1.10;;;2.60;99.90;;;;;;5073853;28;20466;-59
2021/01/06 09:13:34;;;;;;;2.33;1.20;;;2.60;99.90;;;;;;5076314;28;20435;-58
2021/01/06 09:16:05;;;;;;;2.08;1.10;;;2.70;99.90;;;;;;5094983;28;20424;-59
2021/01/06 09:18:37;;;;;;;2.20;1.00;;;2.80;99.90;;;;;;5094945;28;20505;-59
2021/01/06 09:21:20;;;;;;;1.95;1.10;;;2.70;99.90;;;;;;5085482;28;20591;-59
2021/01/06 09:23:49;;;;;;;2.30;1.00;;;2.70;99.90;;;;;;5095263;28;20724;-59
2021/01/06 09:26:17;;;;;;;2.15;1.10;;;2.70;99.90;;;;;;5082210;28;20500;-59
2021/01/06 09:28:49;;;;;;;1.98;1.05;;;2.70;99.90;;;;;;5084426;28;20434;-59
2021/01/06 09:31:16;;;;;;;2.53;1.20;;;2.50;99.90;;;;;;5084749;28;20428;-59
2021/01/06 09:33:45;;;;;;;2.63;1.10;;;2.50;99.90;;;;;;5095534;28;20797;-59
2021/01/06 09:36:13;;;;;;;2.30;1.10;;;2.60;99.90;;;;;;5092040;28;20426;-59
2021/01/06 09:38:44;;;;;;;2.17;1.20;;;2.70;99.90;;;;;;5080544;28;20436;-59
2021/01/06 09:41:14;;;;;;;2.33;1.40;;;2.70;99.90;;;;;;5075522;28;20425;-58
2021/01/06 09:43:47;;;;;;;2.60;1.10;;;2.40;99.90;;;;;;5089715;28;20748;-59
2021/01/06 09:46:17;;;;;;;2.10;1.10;;;2.40;99.90;;;;;;5092208;28;20525;-58
2021/01/06 09:48:51;;;;;;;2.20;1.00;;;2.50;99.90;;;;;;5086138;28;20427;-58
2021/01/06 09:51:22;;;;;;;3.05;1.10;;;2.50;99.90;;;;;;5079870;28;20510;-58
2021/01/06 09:53:52;;;;;;;2.10;1.10;;;2.60;99.90;;;;;;5087815;28;20866;-58
2021/01/06 09:56:21;;;;;;;1.90;1.10;;;2.70;99.90;;;;;;5080801;28;20462;-58
2021/01/06 09:58:49;;;;;;;1.90;1.00;;;2.60;99.90;;;;;;5087506;28;20428;-58
2021/01/06 10:01:26;;;;;;;2.22;1.08;;;2.60;99.90;;;;;;5086942;28;20439;-58
2021/01/06 10:03:55;;;;;;;2.83;1.20;;;2.70;99.90;;;;;;5077926;28;20815;-58
2021/01/06 10:06:50;;;;;;;2.88;1.10;;;2.60;99.90;;;;;;5088637;28;20426;-58
2021/01/06 10:09:25;;;;;;;2.30;1.00;;;2.80;99.90;;;;;;5075531;28;20423;-58
2021/01/06 10:12:21;;;;;;;1.90;1.00;;;2.60;99.90;;;;;;5080105;28;20441;-58
2021/01/06 10:15:09;;;;;;;2.45;1.20;;;2.60;99.90;;;;;;5085037;28;20429;-59
2021/01/06 10:17:40;;;;;;;2.55;1.30;;;2.50;99.90;;;;;;5083362;28;20526;-58
2021/01/06 10:20:14;;;;;;;2.33;1.20;;;2.50;99.90;;;;;;5088589;28;20462;-58
2021/01/06 10:22:45;;;;;;;2.50;1.20;;;2.60;99.90;;;;;;5083601;28;20436;-59
2021/01/06 10:25:35;;;;;;;1.90;1.00;;;2.70;99.90;;;;;;5076102;28;20607;-59
2021/01/06 10:28:06;;;;;;;2.05;1.00;;;2.80;99.90;;;;;;5074754;28;20436;-59
2021/01/06 10:30:34;;;;;;;2.35;1.10;;;2.80;99.90;;;;;;5078025;28;20494;-59
2021/01/06 10:33:17;;;;;;;2.28;1.20;;;2.50;99.90;;;;;;5090026;28;20422;-58
2021/01/06 10:36:02;;;;;;;2.30;1.20;;;2.40;99.90;;;;;;5084487;28;20417;-59
2021/01/06 10:38:33;;;;;;;1.95;1.10;;;2.40;99.90;;;;;;5086546;28;20428;-58
2021/01/06 10:41:22;;;;;;;2.40;1.00;;;2.60;99.90;;;;;;5075706;28;20847;-59
2021/01/06 10:43:50;;;;;;;2.40;1.30;;;2.60;99.90;;;;;;5086627;28;20435;-59
2021/01/06 10:46:42;;;;;;;2.50;1.45;;;2.50;99.90;;;;;;5072677;28;21077;-59
2021/01/06 10:49:28;;;;;;;2.40;1.10;;;2.40;99.90;;;;;;5084837;28;20460;-59
2021/01/06 10:52:14;;;;;;;2.17;1.00;;;2.40;99.90;;;;;;5056836;28;20867;-59
2021/01/06 10:54:45;;;;;;;2.53;1.20;;;2.40;99.90;;;;;;5077117;28;20430;-59
2021/01/06 10:57:24;;;;;;;3.20;1.20;;;2.30;99.90;;;;;;5083546;28;20434;-58
2021/01/06 11:00:15;;;;;;;3.03;1.30;;;2.40;99.90;;;;;;5075092;28;20423;-58
2021/01/06 11:03:20;;;;;;;1.92;1.10;;;2.60;99.90;;;;;;5073556;28;20431;-59
2021/01/06 11:06:18;;;;;;;2.50;1.40;;;2.50;99.90;;;;;;5080300;28;20436;-59
2021/01/06 11:08:59;;;;;;;2.90;1.60;;;2.50;99.90;;;;;;5084438;28;20434;-58
2021/01/06 11:11:41;;;;;;;2.83;1.10;;;2.70;99.90;;;;;;5089196;28;20438;-59
2021/01/06 11:14:26;;;;;;;2.27;1.00;;;2.70;99.90;;;;;;5079241;28;20439;-59
2021/01/06 11:16:57;;;;;;;2.40;1.42;;;2.80;99.90;;;;;;5074034;28;20526;-58
2021/01/06 11:19:43;;;;;;;3.70;1.30;;;2.70;99.90;;;;;;5072424;28;20427;-58
2021/01/06 11:22:34;;;;;;;2.85;1.15;;;2.60;99.90;;;;;;5079788;28;20434;-59
2021/01/06 11:25:03;;;;;;;2.30;1.27;;;2.60;99.90;;;;;;5079826;28;20830;-58
2021/01/06 11:27:40;;;;;;;2.80;1.30;;;2.60;99.90;;;;;;5092409;28;20487;-58
2021/01/06 11:30:26;;;;;;;2.80;1.50;;;2.50;99.90;;;;;;5077285;28;20896;-58
2021/01/06 11:33:17;;;;;;;2.40;1.40;;;2.30;99.90;;;;;;5072173;28;20670;-58
2021/01/06 11:35:47;;;;;;;3.63;1.70;;;2.20;99.90;;;;;;5088027;28;20777;-57
2021/01/06 11:38:48;;;;;;;3.47;1.52;;;2.00;99.90;;;;;;5078847;28;20436;-58
2021/01/06 11:41:18;;;;;;;3.58;1.60;;;2.10;99.90;;;;;;5079779;28;20490;-58
2021/01/06 11:44:08;;;;;;;2.55;1.15;;;2.30;99.90;;;;;;5079266;28;20428;-57
2021/01/06 11:46:46;;;;;;;3.50;1.40;;;2.50;99.90;;;;;;5081534;28;20424;-57
2021/01/06 11:49:23;;;;;;;2.90;1.20;;;2.70;99.90;;;;;;5084263;28;20505;-58
2021/01/06 11:52:26;;;;;;;3.00;1.50;;;2.80;99.90;;;;;;5083232;28;20426;-57
2021/01/06 11:54:56;;;;;;;2.70;1.20;;;2.90;99.90;;;;;;5005904;28;20462;-57
2021/01/06 11:57:32;;;;;;;3.90;1.27;;;3.00;99.90;;;;;;5078614;28;20494;-57
2021/01/06 12:00:31;;;;;;;3.03;1.40;;;2.90;99.90;;;;;;5091965;28;20428;-54
2021/01/06 12:03:15;;;;;;;2.90;1.30;;;2.90;99.90;;;;;;5077289;28;20443;-57
2021/01/06 12:05:56;;;;;;;2.20;1.42;;;3.00;99.90;;;;;;5085330;28;20748;-57
2021/01/06 12:08:31;;;;;;;2.90;1.30;;;3.00;99.90;;;;;;5071303;28;20435;-55
2021/01/06 12:11:09;;;;;;;3.20;1.20;;;3.10;99.90;;;;;;5079568;28;20435;-56
2021/01/06 12:13:47;;;;;;;2.40;1.30;;;3.00;99.90;;;;;;5069613;28;20427;-56
2021/01/06 12:16:17;;;;;;;2.03;1.15;;;3.00;99.90;;;;;;5061892;28;20438;-57
2021/01/06 12:19:02;;;;;;;2.70;1.10;;;2.90;99.90;;;;;;5069959;28;20427;-58
2021/01/06 12:21:50;;;;;;;2.75;1.50;;;2.60;99.90;;;;;;5061956;28;20481;-57
2021/01/06 12:24:20;;;;;;;3.05;1.45;;;2.70;99.90;;;;;;5070620;28;20435;-58
2021/01/06 12:26:54;;;;;;;2.40;1.20;;;2.60;99.90;;;;;;5061346;28;20489;-56
2021/01/06 12:29:24;;;;;;;4.38;1.30;;;2.50;99.90;;;;;;5069720;28;20515;-57
2021/01/06 12:31:57;;;;;;;3.58;1.50;;;2.60;99.90;;;;;;5073270;28;20419;-58
2021/01/06 12:34:32;;;;;;;2.38;1.15;;;2.50;99.90;;;;;;5074630;28;20443;-57
2021/01/06 12:37:07;;;;;;;2.45;1.30;;;2.60;99.90;;;;;;5071835;28;20419;-57
2021/01/06 12:39:37;;;;;;;2.10;1.20;;;2.60;99.90;;;;;;5076355;28;20502;-58
2021/01/06 12:42:08;;;;;;;3.10;1.17;;;2.60;99.90;;;;;;5075293;28;20458;-57
2021/01/06 12:44:37;;;;;;;2.60;1.20;;;2.50;99.90;;;;;;5070267;28;20429;-58
2021/01/06 12:47:09;;;;;;;2.75;1.10;;;2.70;99.90;;;;;;5075915;28;20438;-58
2021/01/06 12:49:57;;;;;;;2.47;1.17;;;3.00;99.90;;;;;;5066987;28;20532;-58
2021/01/06 12:52:41;;;;;;;2.70;1.40;;;3.00;99.90;;;;;;5073252;28;20431;-58
2021/01/06 12:55:16;;;;;;;3.35;1.58;;;2.80;99.90;;;;;;5073029;28;20498;-57
2021/01/06 12:57:47;;;;;;;2.10;1.30;;;2.80;99.90;;;;;;5065913;28;20431;-58
2021/01/06 13:00:34;;;;;;;4.35;1.10;;;2.80;99.90;;;;;;5072891;28;20424;-58
2021/01/06 13:03:19;;;;;;;2.80;1.00;;;2.60;99.90;;;;;;5072365;28;20610;-58
2021/01/06 13:05:52;;;;;;;2.45;1.00;;;2.70;99.90;;;;;;5059707;28;20567;-57
2021/01/06 13:08:32;;;;;;;2.08;1.00;;;2.90;99.90;;;;;;5072919;28;20427;-58
2021/01/06 13:11:09;;;;;;;1.87;0.93;;;3.00;99.90;;;;;;5072672;28;20788;-58
2021/01/06 13:13:39;;;;;;;2.00;1.00;;;3.10;99.90;;;;;;5085286;28;20432;-57
2021/01/06 13:16:21;;;;;;;1.23;0.90;;;3.20;99.90;;;;;;5093069;28;20900;-57
2021/01/06 13:18:51;;;;;;;2.28;1.10;;;3.10;99.90;;;;;;5094433;28;20428;-57
2021/01/06 13:21:25;;;;;;;1.90;1.10;;;3.00;99.90;;;;;;5093283;28;20417;-57
2021/01/06 13:24:05;;;;;;;1.70;1.00;;;3.00;99.90;;;;;;5092732;28;20812;-57
2021/01/06 13:26:39;;;;;;;2.13;0.90;;;3.00;99.90;;;;;;5093925;28;20509;-57
2021/01/06 13:29:27;;;;;;;2.40;0.90;;;3.00;99.90;;;;;;5081242;28;20454;-56
2021/01/06 13:32:13;;;;;;;1.70;1.00;;;3.00;99.90;;;;;;5092634;28;20425;-56
2021/01/06 13:34:47;;;;;;;1.80;0.95;;;3.00;99.90;;;;;;5093213;28;20863;-57
2021/01/06 13:37:33;;;;;;;1.45;0.90;;;2.80;99.90;;;;;;5088352;28;20437;-57